createdAt,value
2022-12-06T00:03:03.819Z,3.3
2022-12-06T00:08:02.749Z,4.1
2022-12-06T00:13:01.811Z,2.7
2022-12-06T00:18:00.923Z,3.9
2022-12-06T00:23:00.025Z,6.4
2022-12-06T00:27:59.082Z,3.1
2022-12-06T00:32:58.202Z,2.5
2022-12-06T00:37:57.278Z,5.1
2022-12-06T00:42:56.404Z,5.4
2022-12-06T00:47:55.469Z,9.1
2022-12-06T00:52:54.618Z,12.9
2022-12-06T00:57:53.732Z,2.5
2022-12-06T01:02:52.928Z,3.2
2022-12-06T01:07:52.004Z,3.3
2022-12-06T01:12:51.069Z,5.4
2022-12-06T01:17:50.144Z,2.4
2022-12-06T01:22:49.268Z,3.3
2022-12-06T01:27:48.379Z,3.5
2022-12-06T01:32:47.459Z,4
2022-12-06T01:37:46.527Z,2.9
2022-12-06T01:42:45.576Z,3.9
2022-12-06T01:47:44.662Z,4
2022-12-06T01:52:43.759Z,4.1
2022-12-06T01:57:42.858Z,6.1
2022-12-06T02:02:42.069Z,2.7
2022-12-06T02:07:41.061Z,3.8
2022-12-06T02:12:40.094Z,5.4
2022-12-06T02:17:39.191Z,5.7
2022-12-06T02:22:38.221Z,4.3
2022-12-06T02:27:37.257Z,3.2
2022-12-06T02:32:36.346Z,4.8
2022-12-06T02:37:35.410Z,3.2
2022-12-06T02:42:34.505Z,3.2
2022-12-06T02:47:33.623Z,8.6
2022-12-06T02:52:32.680Z,4.4
2022-12-06T02:57:31.749Z,6.1
2022-12-06T03:02:30.947Z,3.5
2022-12-06T03:07:29.945Z,2.1
2022-12-06T03:12:29.000Z,2.8
2022-12-06T03:17:28.107Z,3.7
2022-12-06T03:22:27.174Z,6
2022-12-06T03:27:26.327Z,3.9
2022-12-06T03:32:25.367Z,9.4
2022-12-06T03:37:24.478Z,3.7
2022-12-06T03:42:23.552Z,2.9
2022-12-06T03:47:22.650Z,2.6
2022-12-06T03:52:21.781Z,4.9
2022-12-06T03:57:20.881Z,4.5
2022-12-06T04:02:19.924Z,2.1
2022-12-06T04:06:13.769Z,2.1
2022-12-06T04:07:19.042Z,3.3
2022-12-06T04:12:18.119Z,7.3
2022-12-06T04:17:17.229Z,4
2022-12-06T04:22:16.286Z,5.1
2022-12-06T04:27:15.417Z,4.1
2022-12-06T04:32:14.544Z,4.2
2022-12-06T04:37:13.630Z,7.1
2022-12-06T04:42:12.756Z,3.7
2022-12-06T04:47:11.850Z,5.6
2022-12-06T04:52:11.078Z,5.1
2022-12-06T04:57:10.106Z,5.2
2022-12-06T05:02:09.200Z,4.2
2022-12-06T05:07:08.373Z,2.9
2022-12-06T05:12:07.461Z,4.9
2022-12-06T05:17:06.541Z,3.3
2022-12-06T05:22:05.649Z,5.5
2022-12-06T05:27:04.775Z,4.3
2022-12-06T05:32:04.075Z,4.6
2022-12-06T05:37:03.124Z,3.7
2022-12-06T05:42:02.171Z,5.9
2022-12-06T05:47:01.285Z,7.6
2022-12-06T05:52:03.974Z,5.6
2022-12-06T05:56:59.519Z,11.5
2022-12-06T06:01:58.751Z,7.3
2022-12-06T06:06:57.799Z,7.2
2022-12-06T06:11:56.945Z,5.5
2022-12-06T06:16:56.097Z,10.1
2022-12-06T06:21:55.228Z,9.4
2022-12-06T06:26:54.411Z,6.9
2022-12-06T06:31:53.673Z,9.4
2022-12-06T06:36:52.681Z,13.4
2022-12-06T06:41:51.841Z,7.9
2022-12-06T06:46:50.999Z,10.8
2022-12-06T06:51:50.155Z,12.9
2022-12-06T06:56:49.275Z,9.5
2022-12-06T07:01:48.691Z,11.8
2022-12-06T07:06:47.595Z,11.2
2022-12-06T07:11:46.681Z,9.8
2022-12-06T07:16:45.944Z,11.6
2022-12-06T07:21:44.964Z,8.9
2022-12-06T07:26:44.077Z,11.3
2022-12-06T07:31:43.193Z,9.3
2022-12-06T07:36:42.323Z,8.3
2022-12-06T07:41:41.471Z,23.5
2022-12-06T07:46:40.800Z,15.8
2022-12-06T07:51:39.756Z,8.4
2022-12-06T07:56:38.896Z,11.4
2022-12-06T08:01:38.053Z,10.5
2022-12-06T08:06:37.169Z,17.5
2022-12-06T08:11:36.295Z,15.7
2022-12-06T08:16:35.497Z,20.8
2022-12-06T08:21:34.630Z,18
2022-12-06T08:26:33.722Z,23.8
2022-12-06T08:31:32.956Z,15.5
2022-12-06T08:36:32.062Z,14.9
2022-12-06T08:41:31.228Z,18.8
2022-12-06T08:46:30.485Z,15.8
2022-12-06T08:51:29.554Z,16.3
2022-12-06T08:56:28.718Z,13.1
2022-12-06T09:01:31.319Z,14.8
2022-12-06T09:06:27.076Z,15.7
2022-12-06T09:11:26.226Z,14.8
2022-12-06T09:16:25.495Z,10.7
2022-12-06T09:21:24.532Z,21.7
2022-12-06T09:26:23.687Z,19.5
2022-12-06T09:31:22.963Z,15.8
2022-12-06T09:36:22.113Z,22.2
2022-12-06T09:41:21.202Z,13.7
2022-12-06T09:46:20.429Z,17.8
2022-12-06T09:51:19.534Z,22.8
2022-12-06T09:56:18.746Z,50.2
2022-12-06T10:01:17.981Z,44.2
2022-12-06T10:06:17.068Z,26.9
2022-12-06T10:11:16.270Z,19.6
2022-12-06T10:16:15.493Z,18.8
2022-12-06T10:21:14.647Z,21.1
2022-12-06T10:26:13.820Z,9.5
2022-12-06T10:31:12.980Z,13.3
2022-12-06T10:36:12.159Z,9.8
2022-12-06T10:41:11.369Z,14.4
2022-12-06T10:46:10.745Z,13.5
2022-12-06T10:51:09.827Z,8.6
2022-12-06T10:56:09.202Z,14.6
2022-12-06T11:01:08.356Z,17.2
2022-12-06T11:06:07.558Z,10.4
2022-12-06T11:11:06.756Z,16.2
2022-12-06T11:16:06.029Z,9.7
2022-12-06T11:21:05.242Z,7.5
2022-12-06T11:26:04.509Z,12.4
2022-12-06T11:31:03.867Z,5.2
2022-12-06T11:36:02.980Z,6.7
2022-12-06T11:41:02.249Z,5.6
2022-12-06T11:46:01.485Z,5.3
2022-12-06T11:51:00.747Z,6.2
2022-12-06T11:55:59.965Z,3.8
2022-12-06T12:00:59.210Z,5.1
2022-12-06T12:05:58.459Z,9.2
2022-12-06T12:10:57.710Z,9.8
2022-12-06T12:15:56.948Z,8.5
2022-12-06T12:20:56.118Z,6.7
2022-12-06T12:25:55.418Z,6
2022-12-06T12:30:54.586Z,5.7
2022-12-06T12:35:53.805Z,3.8
2022-12-06T12:40:53.047Z,8.6
2022-12-06T12:45:52.309Z,6.5
2022-12-06T12:50:51.530Z,4.9
2022-12-06T12:55:50.749Z,4.6
2022-12-06T13:00:49.999Z,5.8
2022-12-06T13:05:49.437Z,6.9
2022-12-06T13:10:48.448Z,5
2022-12-06T13:15:47.696Z,7
2022-12-06T13:20:46.972Z,3.1
2022-12-06T13:25:46.197Z,4.6
2022-12-06T13:30:45.441Z,6.1
2022-12-06T13:35:44.712Z,7.8
2022-12-06T13:40:43.904Z,3.2
2022-12-06T13:45:43.300Z,8.4
2022-12-06T13:50:42.424Z,9.4
2022-12-06T13:55:41.673Z,6.4
2022-12-06T14:00:40.916Z,15.4
2022-12-06T14:05:40.175Z,23.2
2022-12-06T14:10:39.437Z,19.2
2022-12-06T14:15:38.713Z,11.4
2022-12-06T14:20:37.945Z,12.5
2022-12-06T14:25:37.180Z,9.5
2022-12-06T14:30:36.472Z,8.9
2022-12-06T14:35:35.647Z,14.2
2022-12-06T14:40:46.702Z,9.6
2022-12-06T14:45:35.040Z,15.9
2022-12-06T14:50:33.279Z,18.8
2022-12-06T14:55:32.426Z,14.4
2022-12-06T15:00:32.031Z,40.6
2022-12-06T15:05:30.806Z,50.9
2022-12-06T15:10:30.176Z,38.6
2022-12-06T15:15:29.277Z,35.4
2022-12-06T15:20:28.459Z,38.4
2022-12-06T15:25:27.589Z,39.9
2022-12-06T15:30:26.762Z,33.8
2022-12-06T15:35:25.962Z,23.8
2022-12-06T15:40:25.083Z,24.4
2022-12-06T15:45:24.251Z,23.6
2022-12-06T15:50:23.339Z,27.8
2022-12-06T15:55:22.573Z,29.4
2022-12-06T16:00:21.670Z,38.2
2022-12-06T16:05:20.839Z,45.2
2022-12-06T16:10:22.624Z,31.3
2022-12-06T16:15:19.053Z,47.5
2022-12-06T16:18:11.556Z,47.5
2022-12-06T16:20:18.178Z,49.9
2022-12-06T16:25:17.319Z,55.6
2022-12-06T16:30:16.413Z,50.8
2022-12-06T16:35:15.548Z,50.4
2022-12-06T16:40:14.637Z,61.3
2022-12-06T16:45:13.706Z,42.4
2022-12-06T16:50:12.835Z,48.5
2022-12-06T16:55:11.915Z,44.5
2022-12-06T17:00:11.030Z,48.7
2022-12-06T17:05:10.169Z,55.3
2022-12-06T17:10:09.214Z,61.5
2022-12-06T17:15:08.291Z,74.3
2022-12-06T17:20:07.410Z,85.8
2022-12-06T17:25:06.516Z,83.1
2022-12-06T17:30:05.544Z,101.6
2022-12-06T17:35:04.904Z,95.8
2022-12-06T17:40:03.738Z,107.2
2022-12-06T17:45:03.180Z,87.8
2022-12-06T17:50:02.402Z,90.4
2022-12-06T17:55:01.309Z,89
2022-12-06T18:00:00.099Z,78.2
2022-12-06T18:04:59.824Z,84.2
2022-12-06T18:09:58.271Z,81
2022-12-06T18:14:57.263Z,76.3
2022-12-06T18:19:56.373Z,76.1
2022-12-06T18:24:55.469Z,81.3
2022-12-06T18:29:54.572Z,87.3
2022-12-06T18:34:53.634Z,90.1
2022-12-06T18:39:52.686Z,90.6
2022-12-06T18:44:57.918Z,91.8
2022-12-06T18:49:50.835Z,99.4
2022-12-06T18:54:49.956Z,96.2
2022-12-06T18:59:49.050Z,104.7
2022-12-06T19:04:48.091Z,101.1
2022-12-06T19:09:47.232Z,109.5
2022-12-06T19:14:46.301Z,118.7
2022-12-06T19:19:45.397Z,107.4
2022-12-06T19:24:44.403Z,113.7
2022-12-06T19:29:43.481Z,131.1
2022-12-06T19:34:42.723Z,99.8
2022-12-06T19:39:41.720Z,129.2
2022-12-06T19:44:40.719Z,150.4
2022-12-06T19:49:39.772Z,126.5
2022-12-06T19:54:38.846Z,112.9
2022-12-06T19:59:37.906Z,123.6
2022-12-06T20:04:36.937Z,132.2
2022-12-06T20:09:35.990Z,112.5
2022-12-06T20:14:35.073Z,103.9
2022-12-06T20:19:34.111Z,102.6
2022-12-06T20:24:33.231Z,118.3
2022-12-06T20:29:32.217Z,116.5
2022-12-06T20:34:31.264Z,117.2
2022-12-06T20:39:30.333Z,141.3
2022-12-06T20:44:29.403Z,206
2022-12-06T20:49:28.712Z,224.4
2022-12-06T20:54:27.547Z,254.1
2022-12-06T20:59:26.592Z,243.9
2022-12-06T21:04:25.653Z,250.2
2022-12-06T21:09:24.747Z,197.5
2022-12-06T21:14:23.741Z,184.1
2022-12-06T21:19:22.796Z,191.3
2022-12-06T21:24:21.819Z,206.1
2022-12-06T21:29:26.433Z,178.4
2022-12-06T21:34:19.948Z,153.9
2022-12-06T21:39:18.956Z,167.9
2022-12-06T21:44:17.952Z,158.4
2022-12-06T21:49:16.996Z,151.3
2022-12-06T21:54:16.099Z,131
2022-12-06T21:59:15.120Z,136.2
2022-12-06T22:04:14.182Z,123.9
2022-12-06T22:09:13.231Z,133.5
2022-12-06T22:14:12.301Z,136.4
2022-12-06T22:19:11.349Z,125.4
2022-12-06T22:24:10.356Z,108.8
2022-12-06T22:29:09.425Z,121.2
2022-12-06T22:34:08.557Z,115.1
2022-12-06T22:39:07.524Z,104.6
2022-12-06T22:44:06.583Z,98.5
2022-12-06T22:49:05.610Z,96.2
2022-12-06T22:54:04.670Z,122.6
2022-12-06T22:59:03.739Z,104.7
2022-12-06T23:04:02.799Z,84.5
2022-12-06T23:09:01.973Z,90.7
2022-12-06T23:14:00.934Z,87.4
2022-12-06T23:18:59.925Z,114.7
2022-12-06T23:23:58.999Z,94.2
2022-12-06T23:28:58.108Z,83.8
2022-12-06T23:33:57.130Z,95.8
2022-12-06T23:38:56.174Z,115.2
2022-12-06T23:43:55.208Z,95.8
2022-12-06T23:48:54.217Z,94.7
2022-12-06T23:53:53.552Z,91.4
2022-12-06T23:58:52.315Z,98.8
